sensor_id;sensor_type;location;lat;lon;timestamp;pressure;altitude;pressure_sealevel;temperature;humidity
46174;BME280;31897;52.420;13.498;2023-05-19T00:00:30;102400;;;9.49724;27.73218
46174;BME280;31897;52.420;13.498;2023-05-19T00:03:31;102400;;;9.46623;27.75663
46174;BME280;31897;52.420;13.498;2023-05-19T00:06:32;102400;;;9.36964;27.90065
46174;BME280;31897;52.420;13.498;2023-05-19T00:09:33;102400;;;9.30633;27.97895
46174;BME280;31897;52.420;13.498;2023-05-19T00:12:34;102400;;;9.28339;27.9855
46174;BME280;31897;52.420;13.498;2023-05-19T00:15:36;102400;;;9.2078;28.05236
46174;BME280;31897;52.420;13.498;2023-05-19T00:18:37;102400;;;9.15579;28.13616
46174;BME280;31897;52.420;13.498;2023-05-19T00:21:37;102400;;;9.12058;28.17244
46174;BME280;31897;52.420;13.498;2023-05-19T00:24:38;102400;;;9.06857;28.2092
46174;BME280;31897;52.420;13.498;2023-05-19T00:27:39;102400;;;9.05597;28.25656
46174;BME280;31897;52.420;13.498;2023-05-19T00:30:40;102400;;;9.0508;28.29197
46174;BME280;31897;52.420;13.498;2023-05-19T00:33:40;102400;;;9.00106;28.35801
46174;BME280;31897;52.420;13.498;2023-05-19T00:36:41;102400;;;8.9161;28.36626
46174;BME280;31897;52.420;13.498;2023-05-19T00:39:42;102400;;;8.85472;28.4326
46174;BME280;31897;52.420;13.498;2023-05-19T00:42:43;102400;;;8.79819;28.51052
46174;BME280;31897;52.420;13.498;2023-05-19T00:45:44;102400;;;8.75813;28.49401
46174;BME280;31897;52.420;13.498;2023-05-19T00:48:45;102400;;;8.71033;28.55406
46174;BME280;31897;52.420;13.498;2023-05-19T00:51:45;102400;;;8.6861;28.6604
46174;BME280;31897;52.420;13.498;2023-05-19T00:54:47;102400;;;8.62117;28.65043
46174;BME280;31897;52.420;13.498;2023-05-19T00:57:48;102400;;;8.56528;28.71065
46174;BME280;31897;52.420;13.498;2023-05-19T01:00:49;102400;;;8.54719;28.81092
46174;BME280;31897;52.420;13.498;2023-05-19T01:03:50;102400;;;8.51812;28.87626
46174;BME280;31897;52.420;13.498;2023-05-19T01:06:51;102400;;;8.45513;28.84273
46174;BME280;31897;52.420;13.498;2023-05-19T01:09:52;102400;;;8.42476;28.88462
46174;BME280;31897;52.420;13.498;2023-05-19T01:12:53;102400;;;8.39924;28.96157
46174;BME280;31897;52.420;13.498;2023-05-19T01:15:59;102400;;;8.36694;28.93896
46174;BME280;31897;52.420;13.498;2023-05-19T01:19:05;102400;;;8.3776;28.95628
46174;BME280;31897;52.420;13.498;2023-05-19T01:22:20;102400;;;8.37986;28.99729
46174;BME280;31897;52.420;13.498;2023-05-19T01:25:29;102400;;;8.38826;29.03225
46174;BME280;31897;52.420;13.498;2023-05-19T01:28:47;102400;;;8.3986;29.04373
46174;BME280;31897;52.420;13.498;2023-05-19T01:31:53;102400;;;8.37372;29.05612
46174;BME280;31897;52.420;13.498;2023-05-19T01:34:54;102400;;;8.35693;29.10349
46174;BME280;31897;52.420;13.498;2023-05-19T01:37:57;102400;;;8.32075;29.11616
46174;BME280;31897;52.420;13.498;2023-05-19T01:40:58;102400;;;8.24063;29.15931
46174;BME280;31897;52.420;13.498;2023-05-19T01:43:59;102400;;;8.18863;29.17825
46174;BME280;31897;52.420;13.498;2023-05-19T01:47:00;102400;;;8.19218;29.24852
46174;BME280;31897;52.420;13.498;2023-05-19T01:50:01;102400;;;8.16052;29.22588
46174;BME280;31897;52.420;13.498;2023-05-19T01:53:02;102400;;;8.12305;29.23273
46174;BME280;31897;52.420;13.498;2023-05-19T01:56:03;102400;;;8.114;29.3033
46174;BME280;31897;52.420;13.498;2023-05-19T01:59:07;102400;;;8.11885;29.3149
46174;BME280;31897;52.420;13.498;2023-05-19T02:02:12;102400;;;8.11594;29.35015
46174;BME280;31897;52.420;13.498;2023-05-19T02:05:21;102400;;;8.08235;29.32756
46174;BME280;31897;52.420;13.498;2023-05-19T02:08:23;102400;;;8.05586;29.35754
46174;BME280;31897;52.420;13.498;2023-05-19T02:11:29;102400;;;8.03389;29.34638
46174;BME280;31897;52.420;13.498;2023-05-19T02:14:32;102400;;;7.98673;29.37688
46174;BME280;31897;52.420;13.498;2023-05-19T02:17:34;102400;;;7.95766;29.43623
46174;BME280;31897;52.420;13.498;2023-05-19T02:20:36;102400;;;7.92535;29.39602
46174;BME280;31897;52.420;13.498;2023-05-19T02:23:36;102400;;;7.8475;29.42143
46174;BME280;31897;52.420;13.498;2023-05-19T02:26:37;102400;;;7.75124;29.47071
46174;BME280;31897;52.420;13.498;2023-05-19T02:29:38;102400;;;7.74898;29.51763
46174;BME280;31897;52.420;13.498;2023-05-19T02:32:39;102400;;;7.7338;29.54144
46174;BME280;31897;52.420;13.498;2023-05-19T02:35:39;102400;;;7.71248;29.54197
46174;BME280;31897;52.420;13.498;2023-05-19T02:38:40;102400;;;7.70375;29.60661
46174;BME280;31897;52.420;13.498;2023-05-19T02:41:41;102400;;;7.60394;29.70277
46174;BME280;31897;52.420;13.498;2023-05-19T02:44:42;102400;;;7.58326;29.74426
46174;BME280;31897;52.420;13.498;2023-05-19T02:47:42;102400;;;7.60329;29.70864
46174;BME280;31897;52.420;13.498;2023-05-19T02:50:43;102400;;;7.62235;29.72574
46174;BME280;31897;52.420;13.498;2023-05-19T02:53:44;102300;;;7.66338;29.71888
46174;BME280;31897;52.420;13.498;2023-05-19T02:56:45;102300;;;7.71118;29.68843
46174;BME280;31897;52.420;13.498;2023-05-19T02:59:45;102300;;;7.70795;29.65922
46174;BME280;31897;52.420;13.498;2023-05-19T03:02:46;102300;;;7.69213;29.66547
46174;BME280;31897;52.420;13.498;2023-05-19T03:05:47;102300;;;7.69503;29.68297
46174;BME280;31897;52.420;13.498;2023-05-19T03:08:48;102300;;;7.72281;29.62957
46174;BME280;31897;52.420;13.498;2023-05-19T03:11:48;102300;;;7.70246;29.64179
46174;BME280;31897;52.420;13.498;2023-05-19T03:14:49;102300;;;7.70279;29.63007
46174;BME280;31897;52.420;13.498;2023-05-19T03:17:50;102300;;;7.71764;29.65313
46174;BME280;31897;52.420;13.498;2023-05-19T03:20:51;102300;;;7.74026;29.64085
46174;BME280;31897;52.420;13.498;2023-05-19T03:23:52;102300;;;7.73767;29.63506
46174;BME280;31897;52.420;13.498;2023-05-19T03:26:52;102300;;;7.73154;29.65278
46174;BME280;31897;52.420;13.498;2023-05-19T03:29:53;102300;;;7.76093;29.62277
46174;BME280;31897;52.420;13.498;2023-05-19T03:32:54;102300;;;7.7577;29.59942
46174;BME280;31897;52.420;13.498;2023-05-19T03:35:55;102300;;;7.74575;29.60557
46174;BME280;31897;52.420;13.498;2023-05-19T03:38:56;102300;;;7.76384;29.61098
46174;BME280;31897;52.420;13.498;2023-05-19T03:41:56;102300;;;7.77934;29.58131
46174;BME280;31897;52.420;13.498;2023-05-19T03:44:57;102300;;;7.76093;29.56419
46174;BME280;31897;52.420;13.498;2023-05-19T03:47:58;102300;;;7.7745;29.55214
46174;BME280;31897;52.420;13.498;2023-05-19T03:50:59;102300;;;7.76093;29.56419
46174;BME280;31897;52.420;13.498;2023-05-19T03:54:00;102300;;;7.77741;29.56379
46174;BME280;31897;52.420;13.498;2023-05-19T03:57:00;102300;;;7.82586;29.60359
46174;BME280;31897;52.420;13.498;2023-05-19T04:00:02;102300;;;7.84847;29.58545
46174;BME280;31897;52.420;13.498;2023-05-19T04:03:02;102300;;;7.88724;29.68409
46174;BME280;31897;52.420;13.498;2023-05-19T04:06:03;102300;;;7.94958;29.65326
46174;BME280;31897;52.420;13.498;2023-05-19T04:09:09;102300;;;7.97639;29.67603
46174;BME280;31897;52.420;13.498;2023-05-19T04:12:10;102300;;;8.02452;29.69829
46174;BME280;31897;52.420;13.498;2023-05-19T04:15:11;102300;;;8.06587;29.6621
46174;BME280;31897;52.420;13.498;2023-05-19T04:18:12;102300;;;8.0901;29.63805
46174;BME280;31897;52.420;13.498;2023-05-19T04:21:12;102300;;;8.15858;29.65394
46174;BME280;31897;52.420;13.498;2023-05-19T04:24:13;102300;;;8.17377;29.70633
46174;BME280;31897;52.420;13.498;2023-05-19T04:27:14;102300;;;8.21964;29.71106
46174;BME280;31897;52.420;13.498;2023-05-19T04:30:15;102300;;;8.25226;29.67507
46174;BME280;31897;52.420;13.498;2023-05-19T04:33:16;102400;;;8.25388;29.68676
46174;BME280;31897;52.420;13.498;2023-05-19T04:36:16;102400;;;8.29523;29.73265
46174;BME280;31897;52.420;13.498;2023-05-19T04:39:17;102400;;;8.34336;29.69627
46174;BME280;31897;52.420;13.498;2023-05-19T04:42:18;102400;;;8.36597;29.75436
46174;BME280;31897;52.420;13.498;2023-05-19T04:45:19;102400;;;8.38761;29.78316
46174;BME280;31897;52.420;13.498;2023-05-19T04:48:19;102400;;;8.41701;29.80003
46174;BME280;31897;52.420;13.498;2023-05-19T04:51:20;102400;;;8.44834;29.84032
46174;BME280;31897;52.420;13.498;2023-05-19T04:54:21;102400;;;8.49906;29.81561
46174;BME280;31897;52.420;13.498;2023-05-19T04:57:22;102400;;;8.59952;29.80728
46174;BME280;31897;52.420;13.498;2023-05-19T05:00:23;102400;;;8.70193;29.81649
46174;BME280;31897;52.420;13.498;2023-05-19T05:03:23;102400;;;8.77816;29.76765
46174;BME280;31897;52.420;13.498;2023-05-19T05:06:24;102400;;;8.87992;29.76512
46174;BME280;31897;52.420;13.498;2023-05-19T05:09:25;102400;;;8.94259;29.71071
46174;BME280;31897;52.420;13.498;2023-05-19T05:12:26;102400;;;8.95131;29.74573
46174;BME280;31897;52.420;13.498;2023-05-19T05:15:27;102400;;;9.02464;29.80852
46174;BME280;31897;52.420;13.498;2023-05-19T05:18:28;102400;;;9.12446;29.81192
46174;BME280;31897;52.420;13.498;2023-05-19T05:21:29;102400;;;9.23074;29.80928
46174;BME280;31897;52.420;13.498;2023-05-19T05:24:30;102400;;;9.32377;29.78933
46174;BME280;31897;52.420;13.498;2023-05-19T05:27:31;102400;;;9.44749;29.70981
46174;BME280;31897;52.420;13.498;2023-05-19T05:30:32;102400;;;9.68945;29.56252
46174;BME280;31897;52.420;13.498;2023-05-19T05:33:33;102400;;;9.84871;29.40542
46174;BME280;31897;52.420;13.498;2023-05-19T05:36:34;102400;;;10.01927;29.30089
46174;BME280;31897;52.420;13.498;2023-05-19T05:39:35;102400;;;9.95822;29.24362
46174;BME280;31897;52.420;13.498;2023-05-19T05:42:35;102400;;;9.96791;29.2728
46174;BME280;31897;52.420;13.498;2023-05-19T05:45:36;102400;;;9.98535;29.37832
46174;BME280;31897;52.420;13.498;2023-05-19T05:48:37;102400;;;10.09357;29.38138
46174;BME280;31897;52.420;13.498;2023-05-19T05:51:38;102400;;;10.22795;29.37787
46174;BME280;31897;52.420;13.498;2023-05-19T05:54:39;102400;;;10.30968;29.252
46174;BME280;31897;52.420;13.498;2023-05-19T05:57:40;102400;;;10.36719;29.27994
46174;BME280;31897;52.420;13.498;2023-05-19T06:00:41;102400;;;10.47993;29.17086
46174;BME280;31897;52.420;13.498;2023-05-19T06:03:42;102400;;;10.58621;29.10906
46174;BME280;31897;52.420;13.498;2023-05-19T06:06:43;102400;;;10.70606;29.07634
46174;BME280;31897;52.420;13.498;2023-05-19T06:09:44;102400;;;10.83301;28.94902
46174;BME280;31897;52.420;13.498;2023-05-19T06:12:45;102300;;;10.9716;28.88031
46174;BME280;31897;52.420;13.498;2023-05-19T06:15:45;102300;;;11.1063;28.77034
46174;BME280;31897;52.420;13.498;2023-05-19T06:18:46;102300;;;11.2184;28.61959
46174;BME280;31897;52.420;13.498;2023-05-19T06:21:47;102400;;;11.31079;28.59923
46174;BME280;31897;52.420;13.498;2023-05-19T06:24:48;102300;;;11.44292;28.45962
46174;BME280;31897;52.420;13.498;2023-05-19T06:27:48;102400;;;11.54823;28.38568
46174;BME280;31897;52.420;13.498;2023-05-19T06:30:49;102400;;;11.66291;28.24049
46174;BME280;31897;52.420;13.498;2023-05-19T06:33:50;102300;;;11.84349;28.04595
46174;BME280;31897;52.420;13.498;2023-05-19T06:36:51;102400;;;11.8758;28.03316
46174;BME280;31897;52.420;13.498;2023-05-19T06:39:52;102400;;;11.91585;27.99056
46174;BME280;31897;52.420;13.498;2023-05-19T06:42:53;102400;;;12.05541;27.91537
46174;BME280;31897;52.420;13.498;2023-05-19T06:45:54;102300;;;12.23825;27.67306
46174;BME280;31897;52.420;13.498;2023-05-19T06:48:54;102300;;;12.41625;27.42475
46174;BME280;31897;52.420;13.498;2023-05-19T06:51:55;102300;;;12.6314;27.22836
46174;BME280;31897;52.420;13.498;2023-05-19T06:54:56;102300;;;12.65886;27.23341
46174;BME280;31897;52.420;13.498;2023-05-19T06:57:57;102400;;;12.68212;27.09041
46174;BME280;31897;52.420;13.498;2023-05-19T07:00:57;102400;;;12.75513;26.92208
46174;BME280;31897;52.420;13.498;2023-05-19T07:03:58;102400;;;12.99968;26.64123
46174;BME280;31897;52.420;13.498;2023-05-19T07:06:59;102400;;;13.32241;26.3455
46174;BME280;31897;52.420;13.498;2023-05-19T07:10:00;102400;;;13.37474;26.24277
46174;BME280;31897;52.420;13.498;2023-05-19T07:13:01;102400;;;13.44194;26.21671
46174;BME280;31897;52.420;13.498;2023-05-19T07:16:01;102400;;;13.43806;26.22278
46174;BME280;31897;52.420;13.498;2023-05-19T07:19:02;102400;;;13.48652;26.14984
46174;BME280;31897;52.420;13.498;2023-05-19T07:22:03;102400;;;13.51592;25.97062
46174;BME280;31897;52.420;13.498;2023-05-19T07:25:04;102400;;;13.66355;25.86444
46174;BME280;31897;52.420;13.498;2023-05-19T07:28:05;102400;;;13.83638;25.77511
46174;BME280;31897;52.420;13.498;2023-05-19T07:31:06;102400;;;14.02408;25.65543
46174;BME280;31897;52.420;13.498;2023-05-19T07:34:06;102400;;;14.16719;25.44206
46174;BME280;31897;52.420;13.498;2023-05-19T07:37:07;102400;;;14.34552;25.25105
46174;BME280;31897;52.420;13.498;2023-05-19T07:40:08;102300;;;14.39914;25.30265
46174;BME280;31897;52.420;13.498;2023-05-19T07:43:09;102300;;;14.45697;25.33624
46174;BME280;31897;52.420;13.498;2023-05-19T07:46:10;102300;;;14.49186;25.28137
46174;BME280;31897;52.420;13.498;2023-05-19T07:49:10;102300;;;14.54064;25.26764
46174;BME280;31897;52.420;13.498;2023-05-19T07:52:11;102300;;;14.69054;25.14298
46174;BME280;31897;52.420;13.498;2023-05-19T07:55:12;102300;;;14.81168;25.08484
46174;BME280;31897;52.420;13.498;2023-05-19T07:58:13;102300;;;14.94834;24.98435
46174;BME280;31897;52.420;13.498;2023-05-19T08:01:13;102300;;;15.00649;24.64233
46174;BME280;31897;52.420;13.498;2023-05-19T08:04:14;102300;;;15.60188;24.14171
46174;BME280;31897;52.420;13.498;2023-05-19T08:07:15;102300;;;15.85968;23.86856
46174;BME280;31897;52.420;13.498;2023-05-19T08:10:16;102300;;;15.86615;23.89219
46174;BME280;31897;52.420;13.498;2023-05-19T08:13:17;102300;;;15.88359;23.74211
46174;BME280;31897;52.420;13.498;2023-05-19T08:16:17;102300;;;15.91622;23.6093
46174;BME280;31897;52.420;13.498;2023-05-19T08:19:18;102300;;;16.0322;23.46705
46174;BME280;31897;52.420;13.498;2023-05-19T08:22:19;102300;;;16.24962;23.26066
46174;BME280;31897;52.420;13.498;2023-05-19T08:25:20;102300;;;16.4118;23.06238
46174;BME280;31897;52.420;13.498;2023-05-19T08:28:20;102300;;;17.05146;22.5018
46174;BME280;31897;52.420;13.498;2023-05-19T08:31:26;102300;;;17.25661;22.29491
46174;BME280;31897;52.420;13.498;2023-05-19T08:34:27;102300;;;17.01302;22.38962
46174;BME280;31897;52.420;13.498;2023-05-19T08:37:28;102300;;;16.88541;22.54503
46174;BME280;31897;52.420;13.498;2023-05-19T08:40:29;102300;;;16.94356;22.44062
46174;BME280;31897;52.420;13.498;2023-05-19T08:43:30;102300;;;17.2159;22.14083
46174;BME280;31897;52.420;13.498;2023-05-19T08:46:31;102300;;;18.07041;21.51366
46174;BME280;31897;52.420;13.498;2023-05-19T08:49:32;102300;;;18.08462;21.29067
46174;BME280;31897;52.420;13.498;2023-05-19T08:52:37;102300;;;17.96347;21.27232
46174;BME280;31897;52.420;13.498;2023-05-19T08:55:41;102300;;;17.842;21.23598
46174;BME280;31897;52.420;13.498;2023-05-19T08:58:44;102300;;;17.9092;21.10668
46174;BME280;31897;52.420;13.498;2023-05-19T09:01:45;102300;;;17.89886;20.98703
46174;BME280;31897;52.420;13.498;2023-05-19T09:04:46;102300;;;17.7244;20.9713
46174;BME280;31897;52.420;13.498;2023-05-19T09:07:46;102300;;;17.32219;21.26634
46174;BME280;31897;52.420;13.498;2023-05-19T09:10:47;102300;;;17.11995;21.32376
46174;BME280;31897;52.420;13.498;2023-05-19T09:13:48;102300;;;17.13061;21.2693
46174;BME280;31897;52.420;13.498;2023-05-19T09:16:49;102300;;;17.12286;21.26966
46174;BME280;31897;52.420;13.498;2023-05-19T09:19:49;102300;;;17.13546;21.16113
46174;BME280;31897;52.420;13.498;2023-05-19T09:22:50;102300;;;17.39488;20.6029
46174;BME280;31897;52.420;13.498;2023-05-19T09:25:52;102300;;;17.49826;20.20774
46174;BME280;31897;52.420;13.498;2023-05-19T09:28:52;102300;;;17.7341;20.10604
46174;BME280;31897;52.420;13.498;2023-05-19T09:31:57;102300;;;17.7509;19.97906
46174;BME280;31897;52.420;13.498;2023-05-19T09:34:58;102300;;;17.77416;19.90582
46174;BME280;31897;52.420;13.498;2023-05-19T09:37:59;102300;;;18.01969;19.8635
46174;BME280;31897;52.420;13.498;2023-05-19T09:41:00;102300;;;18.22419;19.77507
46174;BME280;31897;52.420;13.498;2023-05-19T09:44:01;102300;;;18.1683;19.76586
46174;BME280;31897;52.420;13.498;2023-05-19T09:47:08;102300;;;17.95831;19.78244
46174;BME280;31897;52.420;13.498;2023-05-19T09:50:09;102300;;;17.86785;19.72689
46174;BME280;31897;52.420;13.498;2023-05-19T09:53:11;102300;;;17.86332;19.80523
46174;BME280;31897;52.420;13.498;2023-05-19T09:56:12;102300;;;17.82165;19.87942
46174;BME280;31897;52.420;13.498;2023-05-19T09:59:13;102300;;;18.01872;19.83951
46174;BME280;31897;52.420;13.498;2023-05-19T10:02:15;102300;;;17.98383;19.82322
46174;BME280;31897;52.420;13.498;2023-05-19T10:05:16;102300;;;18.03616;19.59218
46174;BME280;31897;52.420;13.498;2023-05-19T10:08:17;102200;;;18.23259;19.38375
46174;BME280;31897;52.420;13.498;2023-05-19T10:11:18;102200;;;18.44194;19.24665
46174;BME280;31897;52.420;13.498;2023-05-19T10:14:21;102200;;;18.65387;19.06715
46174;BME280;31897;52.420;13.498;2023-05-19T10:17:23;102200;;;18.65904;18.86217
46174;BME280;31897;52.420;13.498;2023-05-19T10:20:25;102200;;;18.67681;18.7348
46174;BME280;31897;52.420;13.498;2023-05-19T10:23:26;102200;;;18.76953;18.63354
46174;BME280;31897;52.420;13.498;2023-05-19T10:26:26;102200;;;18.68262;18.52374
46174;BME280;31897;52.420;13.498;2023-05-19T10:29:29;102200;;;18.65387;18.61562
46174;BME280;31897;52.420;13.498;2023-05-19T10:32:31;102200;;;18.56794;18.62014
46174;BME280;31897;52.420;13.498;2023-05-19T10:35:38;102200;;;18.39412;18.56316
46174;BME280;31897;52.420;13.498;2023-05-19T10:38:45;102200;;;18.32628;18.65701
46174;BME280;31897;52.420;13.498;2023-05-19T10:41:52;102200;;;18.36311;18.51065
46174;BME280;31897;52.420;13.498;2023-05-19T10:44:58;102200;;;18.43451;18.42861
46174;BME280;31897;52.420;13.498;2023-05-19T10:48:00;102200;;;18.62124;18.28616
46174;BME280;31897;52.420;13.498;2023-05-19T10:51:00;102200;;;18.74789;18.30344
46174;BME280;31897;52.420;13.498;2023-05-19T10:54:02;102200;;;18.76985;18.30226
46174;BME280;31897;52.420;13.498;2023-05-19T10:57:08;102200;;;18.61704;18.178
46174;BME280;31897;52.420;13.498;2023-05-19T11:00:25;102200;;;18.54274;18.20008
46174;BME280;31897;52.420;13.498;2023-05-19T11:03:27;102200;;;18.71138;18.20904
46174;BME280;31897;52.420;13.498;2023-05-19T11:06:28;102200;;;18.75596;18.12231
46174;BME280;31897;52.420;13.498;2023-05-19T11:09:30;102200;;;18.77405;17.98274
46174;BME280;31897;52.420;13.498;2023-05-19T11:12:31;102200;;;18.75887;17.85711
46174;BME280;31897;52.420;13.498;2023-05-19T11:15:38;102200;;;18.67713;17.74113
46174;BME280;31897;52.420;13.498;2023-05-19T11:18:42;102200;;;18.5156;17.84032
46174;BME280;31897;52.420;13.498;2023-05-19T11:21:46;102200;;;18.36214;17.82464
46174;BME280;31897;52.420;13.498;2023-05-19T11:24:47;102200;;;18.314;17.96568
46174;BME280;31897;52.420;13.498;2023-05-19T11:27:48;102200;;;18.20416;18.0619
46174;BME280;31897;52.420;13.498;2023-05-19T11:30:48;102200;;;18.26554;18.09468
46174;BME280;31897;52.420;13.498;2023-05-19T11:33:49;102200;;;18.22742;18.03658
46174;BME280;31897;52.420;13.498;2023-05-19T11:36:50;102200;;;18.21741;18.12135
46174;BME280;31897;52.420;13.498;2023-05-19T11:39:52;102200;;;18.26457;18.1188
46174;BME280;31897;52.420;13.498;2023-05-19T11:42:52;102200;;;18.272;18.1545
46174;BME280;31897;52.420;13.498;2023-05-19T11:45:53;102200;;;18.37312;18.21524
46174;BME280;31897;52.420;13.498;2023-05-19T11:48:55;102200;;;18.55114;18.19962
46174;BME280;31897;52.420;13.498;2023-05-19T11:51:56;102200;;;18.85676;18.03852
46174;BME280;31897;52.420;13.498;2023-05-19T11:54:58;102200;;;19.11651;17.74706
46174;BME280;31897;52.420;13.498;2023-05-19T11:58:00;102200;;;19.16432;17.87104
46174;BME280;31897;52.420;13.498;2023-05-19T12:01:02;102200;;;19.22312;17.87987
46174;BME280;31897;52.420;13.498;2023-05-19T12:04:06;102200;;;18.89941;18.0121
46174;BME280;31897;52.420;13.498;2023-05-19T12:07:07;102200;;;18.64127;18.06228
46174;BME280;31897;52.420;13.498;2023-05-19T12:10:10;102200;;;18.3266;18.31402
46174;BME280;31897;52.420;13.498;2023-05-19T12:13:11;102200;;;18.08527;18.32695
46174;BME280;31897;52.420;13.498;2023-05-19T12:16:12;102200;;;17.90274;18.42689
46174;BME280;31897;52.420;13.498;2023-05-19T12:19:13;102200;;;17.83812;18.44235
46174;BME280;31897;52.420;13.498;2023-05-19T12:22:14;102200;;;17.89305;18.4214
46174;BME280;31897;52.420;13.498;2023-05-19T12:25:15;102200;;;18.04715;18.34704
46174;BME280;31897;52.420;13.498;2023-05-19T12:28:16;102200;;;18.46165;18.22251
46174;BME280;31897;52.420;13.498;2023-05-19T12:31:18;102200;;;19.02928;18.07132
46174;BME280;31897;52.420;13.498;2023-05-19T12:34:20;102200;;;19.51712;17.71287
46174;BME280;31897;52.420;13.498;2023-05-19T12:37:25;102200;;;19.46736;17.92679
46174;BME280;31897;52.420;13.498;2023-05-19T12:40:25;102200;;;19.08;17.9902
46174;BME280;31897;52.420;13.498;2023-05-19T12:43:28;102200;;;18.9133;18.07762
46174;BME280;31897;52.420;13.498;2023-05-19T12:46:30;102200;;;18.70912;18.01041
46174;BME280;31897;52.420;13.498;2023-05-19T12:49:32;102200;;;18.6739;18.16891
46174;BME280;31897;52.420;13.498;2023-05-19T12:52:33;102200;;;18.66647;18.13318
46174;BME280;31897;52.420;13.498;2023-05-19T12:55:35;102200;;;18.85934;17.99018
46174;BME280;31897;52.420;13.498;2023-05-19T12:58:37;102200;;;19.39241;17.67754
46174;BME280;31897;52.420;13.498;2023-05-19T13:01:38;102200;;;19.82921;17.42989
46174;BME280;31897;52.420;13.498;2023-05-19T13:04:39;102200;;;20.41559;17.12484
46174;BME280;31897;52.420;13.498;2023-05-19T13:07:39;102200;;;20.29767;17.28269
46174;BME280;31897;52.420;13.498;2023-05-19T13:10:41;102200;;;20.55193;17.09894
46174;BME280;31897;52.420;13.498;2023-05-19T13:13:42;102200;;;20.03856;17.16439
46174;BME280;31897;52.420;13.498;2023-05-19T13:16:43;102200;;;19.73616;17.34454
46174;BME280;31897;52.420;13.498;2023-05-19T13:19:44;102200;;;19.47447;17.32906
46174;BME280;31897;52.420;13.498;2023-05-19T13:22:45;102200;;;19.31617;17.53097
46174;BME280;31897;52.420;13.498;2023-05-19T13:25:46;102200;;;19.43764;17.4518
46174;BME280;31897;52.420;13.498;2023-05-19T13:28:46;102200;;;19.40081;17.41163
46174;BME280;31897;52.420;13.498;2023-05-19T13:31:47;102200;;;19.68867;17.01514
46174;BME280;31897;52.420;13.498;2023-05-19T13:34:48;102200;;;19.86571;16.9809
46174;BME280;31897;52.420;13.498;2023-05-19T13:37:49;102200;;;20.20042;16.87716
46174;BME280;31897;52.420;13.498;2023-05-19T13:40:50;102200;;;20.38457;16.68516
46174;BME280;31897;52.420;13.498;2023-05-19T13:43:50;102200;;;20.38942;16.73931
46174;BME280;31897;52.420;13.498;2023-05-19T13:46:51;102100;;;20.39911;16.61175
46174;BME280;31897;52.420;13.498;2023-05-19T13:49:52;102100;;;20.22207;16.73687
46174;BME280;31897;52.420;13.498;2023-05-19T13:52:53;102200;;;20.1287;16.79061
46174;BME280;31897;52.420;13.498;2023-05-19T13:55:54;102200;;;20.35194;16.52982
46174;BME280;31897;52.420;13.498;2023-05-19T13:58:54;102200;;;20.55419;16.39704
46174;BME280;31897;52.420;13.498;2023-05-19T14:01:55;102200;;;20.57906;16.52264
46174;BME280;31897;52.420;13.498;2023-05-19T14:04:56;102200;;;20.61751;16.58696
46174;BME280;31897;52.420;13.498;2023-05-19T14:07:57;102200;;;20.37779;16.66136
46174;BME280;31897;52.420;13.498;2023-05-19T14:10:58;102200;;;20.26148;16.72855
46174;BME280;31897;52.420;13.498;2023-05-19T14:13:59;102200;;;20.34096;16.76629
46174;BME280;31897;52.420;13.498;2023-05-19T14:16:59;102200;;;20.44143;16.77259
46174;BME280;31897;52.420;13.498;2023-05-19T14:20:00;102200;;;20.28119;16.72137
46174;BME280;31897;52.420;13.498;2023-05-19T14:23:01;102200;;;20.05116;16.90384
46174;BME280;31897;52.420;13.498;2023-05-19T14:26:02;102200;;;19.87476;16.88374
46174;BME280;31897;52.420;13.498;2023-05-19T14:29:03;102200;;;20.05342;16.84933
46174;BME280;31897;52.420;13.498;2023-05-19T14:32:04;102200;;;20.51057;16.69602
46174;BME280;31897;52.420;13.498;2023-05-19T14:35:05;102100;;;20.7112;16.47257
46174;BME280;31897;52.420;13.498;2023-05-19T14:38:06;102200;;;20.76451;16.52999
46174;BME280;31897;52.420;13.498;2023-05-19T14:41:07;102200;;;20.53642;16.79736
46174;BME280;31897;52.420;13.498;2023-05-19T14:44:08;102200;;;20.47536;16.89161
46174;BME280;31897;52.420;13.498;2023-05-19T14:47:08;102200;;;20.686;16.58903
46174;BME280;31897;52.420;13.498;2023-05-19T14:50:09;102200;;;21.18807;16.35379
46174;BME280;31897;52.420;13.498;2023-05-19T14:53:10;102200;;;21.32311;16.26705
46174;BME280;31897;52.420;13.498;2023-05-19T14:56:11;102200;;;21.50824;16.04389
46174;BME280;31897;52.420;13.498;2023-05-19T14:59:12;102200;;;21.22102;16.18218
46174;BME280;31897;52.420;13.498;2023-05-19T15:02:13;102200;;;21.4055;16.08638
46174;BME280;31897;52.420;13.498;2023-05-19T15:05:14;102200;;;21.34088;16.07204
46174;BME280;31897;52.420;13.498;2023-05-19T15:08:14;102200;;;21.46074;16.02853